sensor_id;sensor_type;location;lat;lon;timestamp;temperature;humidity
56538;DHT22;42435;53.292;6.000;2023-02-01T00:02:24;7.20;76.00
56538;DHT22;42435;53.292;6.000;2023-02-01T00:04:49;7.20;75.90
56538;DHT22;42435;53.292;6.000;2023-02-01T00:07:15;7.20;75.90
56538;DHT22;42435;53.292;6.000;2023-02-01T00:09:44;7.20;75.90
56538;DHT22;42435;53.292;6.000;2023-02-01T00:12:09;7.20;75.90
56538;DHT22;42435;53.292;6.000;2023-02-01T00:14:35;7.20;75.80
56538;DHT22;42435;53.292;6.000;2023-02-01T00:17:07;7.20;75.80
56538;DHT22;42435;53.292;6.000;2023-02-01T00:19:35;7.20;75.80
56538;DHT22;42435;53.292;6.000;2023-02-01T00:22:08;7.20;75.70
56538;DHT22;42435;53.292;6.000;2023-02-01T00:24:36;7.20;75.70
56538;DHT22;42435;53.292;6.000;2023-02-01T00:27:02;7.20;75.70
56538;DHT22;42435;53.292;6.000;2023-02-01T00:29:28;7.20;75.60
56538;DHT22;42435;53.292;6.000;2023-02-01T00:31:53;7.20;75.60
56538;DHT22;42435;53.292;6.000;2023-02-01T00:34:20;7.20;75.50
56538;DHT22;42435;53.292;6.000;2023-02-01T00:36:46;7.30;75.50
56538;DHT22;42435;53.292;6.000;2023-02-01T00:39:12;7.30;75.50
56538;DHT22;42435;53.292;6.000;2023-02-01T00:41:38;7.30;75.40
56538;DHT22;42435;53.292;6.000;2023-02-01T00:44:04;7.30;75.40
56538;DHT22;42435;53.292;6.000;2023-02-01T00:46:30;7.30;75.50
56538;DHT22;42435;53.292;6.000;2023-02-01T00:49:07;7.30;75.50
56538;DHT22;42435;53.292;6.000;2023-02-01T00:51:34;7.30;75.60
56538;DHT22;42435;53.292;6.000;2023-02-01T00:54:00;7.30;75.60
56538;DHT22;42435;53.292;6.000;2023-02-01T00:56:26;7.30;75.70
56538;DHT22;42435;53.292;6.000;2023-02-01T00:58:55;7.30;75.70
56538;DHT22;42435;53.292;6.000;2023-02-01T01:01:26;7.40;75.80
56538;DHT22;42435;53.292;6.000;2023-02-01T01:03:56;7.40;75.80
56538;DHT22;42435;53.292;6.000;2023-02-01T01:06:25;7.40;75.90
56538;DHT22;42435;53.292;6.000;2023-02-01T01:08:58;7.40;75.90
56538;DHT22;42435;53.292;6.000;2023-02-01T01:11:30;7.40;75.90
56538;DHT22;42435;53.292;6.000;2023-02-01T01:13:58;7.40;75.80
56538;DHT22;42435;53.292;6.000;2023-02-01T01:16:25;7.40;75.80
56538;DHT22;42435;53.292;6.000;2023-02-01T01:18:51;7.40;75.80
56538;DHT22;42435;53.292;6.000;2023-02-01T01:21:17;7.40;75.80
56538;DHT22;42435;53.292;6.000;2023-02-01T01:23:44;7.40;75.90
56538;DHT22;42435;53.292;6.000;2023-02-01T01:26:17;7.40;76.10
56538;DHT22;42435;53.292;6.000;2023-02-01T01:28:46;7.40;76.40
56538;DHT22;42435;53.292;6.000;2023-02-01T01:31:17;7.40;76.50
56538;DHT22;42435;53.292;6.000;2023-02-01T01:33:43;7.40;76.80
56538;DHT22;42435;53.292;6.000;2023-02-01T01:36:12;7.30;77.00
56538;DHT22;42435;53.292;6.000;2023-02-01T01:38:39;7.30;77.10
56538;DHT22;42435;53.292;6.000;2023-02-01T01:41:05;7.30;77.30
56538;DHT22;42435;53.292;6.000;2023-02-01T01:46:42;7.20;77.90
56538;DHT22;42435;53.292;6.000;2023-02-01T01:49:16;7.20;77.90
56538;DHT22;42435;53.292;6.000;2023-02-01T01:51:54;7.20;78.10
56538;DHT22;42435;53.292;6.000;2023-02-01T01:54:40;7.20;78.30
56538;DHT22;42435;53.292;6.000;2023-02-01T01:57:24;7.20;78.40
56538;DHT22;42435;53.292;6.000;2023-02-01T01:59:59;7.10;78.50
56538;DHT22;42435;53.292;6.000;2023-02-01T02:02:28;7.10;78.60
56538;DHT22;42435;53.292;6.000;2023-02-01T02:04:54;7.10;78.70
56538;DHT22;42435;53.292;6.000;2023-02-01T02:07:25;7.10;78.80
56538;DHT22;42435;53.292;6.000;2023-02-01T02:09:52;7.10;78.90
56538;DHT22;42435;53.292;6.000;2023-02-01T02:12:18;7.10;78.90
56538;DHT22;42435;53.292;6.000;2023-02-01T02:14:44;7.10;78.90
56538;DHT22;42435;53.292;6.000;2023-02-01T02:17:33;7.10;78.90
56538;DHT22;42435;53.292;6.000;2023-02-01T02:39:26;7.20;78.50
56538;DHT22;42435;53.292;6.000;2023-02-01T02:48:55;7.20;78.20
56538;DHT22;42435;53.292;6.000;2023-02-01T02:51:38;7.20;77.90
56538;DHT22;42435;53.292;6.000;2023-02-01T02:54:34;7.20;77.70
56538;DHT22;42435;53.292;6.000;2023-02-01T02:57:27;7.20;77.60
56538;DHT22;42435;53.292;6.000;2023-02-01T03:00:16;7.20;77.50
56538;DHT22;42435;53.292;6.000;2023-02-01T03:03:00;7.20;77.50
56538;DHT22;42435;53.292;6.000;2023-02-01T03:05:47;7.20;77.40
56538;DHT22;42435;53.292;6.000;2023-02-01T03:08:18;7.20;77.20
56538;DHT22;42435;53.292;6.000;2023-02-01T03:13:35;7.20;77.20
56538;DHT22;42435;53.292;6.000;2023-02-01T03:21:39;7.30;77.20
56538;DHT22;42435;53.292;6.000;2023-02-01T03:26:40;7.30;77.40
56538;DHT22;42435;53.292;6.000;2023-02-01T03:29:17;7.30;77.50
56538;DHT22;42435;53.292;6.000;2023-02-01T03:31:44;7.30;77.50
56538;DHT22;42435;53.292;6.000;2023-02-01T03:34:11;7.30;77.50
56538;DHT22;42435;53.292;6.000;2023-02-01T03:36:42;7.30;77.50
56538;DHT22;42435;53.292;6.000;2023-02-01T03:39:23;7.30;77.70
56538;DHT22;42435;53.292;6.000;2023-02-01T03:41:53;7.30;77.90
56538;DHT22;42435;53.292;6.000;2023-02-01T03:49:43;7.30;78.20
56538;DHT22;42435;53.292;6.000;2023-02-01T03:52:20;7.30;78.20
56538;DHT22;42435;53.292;6.000;2023-02-01T03:54:47;7.30;78.20
56538;DHT22;42435;53.292;6.000;2023-02-01T03:57:16;7.30;78.10
56538;DHT22;42435;53.292;6.000;2023-02-01T03:59:45;7.30;78.20
56538;DHT22;42435;53.292;6.000;2023-02-01T04:02:11;7.30;78.20
56538;DHT22;42435;53.292;6.000;2023-02-01T04:04:37;7.30;78.20
56538;DHT22;42435;53.292;6.000;2023-02-01T04:07:03;7.40;78.10
56538;DHT22;42435;53.292;6.000;2023-02-01T04:09:29;7.40;78.10
56538;DHT22;42435;53.292;6.000;2023-02-01T04:11:54;7.30;78.00
56538;DHT22;42435;53.292;6.000;2023-02-01T04:14:23;7.20;77.90
56538;DHT22;42435;53.292;6.000;2023-02-01T04:16:48;7.30;77.90
56538;DHT22;42435;53.292;6.000;2023-02-01T04:19:14;7.20;77.90
56538;DHT22;42435;53.292;6.000;2023-02-01T04:21:41;7.20;77.90
56538;DHT22;42435;53.292;6.000;2023-02-01T04:24:10;7.20;77.90
56538;DHT22;42435;53.292;6.000;2023-02-01T04:26:35;7.20;78.00
56538;DHT22;42435;53.292;6.000;2023-02-01T04:29:01;7.20;78.00
56538;DHT22;42435;53.292;6.000;2023-02-01T04:31:27;7.20;78.00
56538;DHT22;42435;53.292;6.000;2023-02-01T04:33:54;7.10;78.10
56538;DHT22;42435;53.292;6.000;2023-02-01T04:36:23;7.10;78.10
56538;DHT22;42435;53.292;6.000;2023-02-01T04:38:52;7.10;78.10
56538;DHT22;42435;53.292;6.000;2023-02-01T04:41:19;7.10;78.10
56538;DHT22;42435;53.292;6.000;2023-02-01T04:43:48;7.10;78.20
56538;DHT22;42435;53.292;6.000;2023-02-01T04:46:17;7.10;78.30
56538;DHT22;42435;53.292;6.000;2023-02-01T04:48:45;7.10;78.30
56538;DHT22;42435;53.292;6.000;2023-02-01T04:51:11;7.10;78.40
56538;DHT22;42435;53.292;6.000;2023-02-01T04:53:36;7.10;78.50
56538;DHT22;42435;53.292;6.000;2023-02-01T04:56:02;7.10;78.50
56538;DHT22;42435;53.292;6.000;2023-02-01T04:58:28;7.20;78.50
56538;DHT22;42435;53.292;6.000;2023-02-01T05:00:56;7.20;78.60
56538;DHT22;42435;53.292;6.000;2023-02-01T05:03:22;7.20;78.60
56538;DHT22;42435;53.292;6.000;2023-02-01T05:05:48;7.20;78.50
56538;DHT22;42435;53.292;6.000;2023-02-01T05:08:14;7.30;78.50
56538;DHT22;42435;53.292;6.000;2023-02-01T05:10:44;7.30;78.50
56538;DHT22;42435;53.292;6.000;2023-02-01T05:13:13;7.30;78.40
56538;DHT22;42435;53.292;6.000;2023-02-01T05:15:57;7.30;78.40
56538;DHT22;42435;53.292;6.000;2023-02-01T05:18:22;7.30;78.30
56538;DHT22;42435;53.292;6.000;2023-02-01T05:20:51;7.30;78.30
56538;DHT22;42435;53.292;6.000;2023-02-01T05:23:16;7.40;78.30
56538;DHT22;42435;53.292;6.000;2023-02-01T05:25:42;7.40;78.30
56538;DHT22;42435;53.292;6.000;2023-02-01T05:28:07;7.40;78.30
56538;DHT22;42435;53.292;6.000;2023-02-01T05:30:33;7.40;78.30
56538;DHT22;42435;53.292;6.000;2023-02-01T05:33:00;7.40;78.30
56538;DHT22;42435;53.292;6.000;2023-02-01T05:35:26;7.40;78.30
56538;DHT22;42435;53.292;6.000;2023-02-01T05:37:51;7.40;78.30
56538;DHT22;42435;53.292;6.000;2023-02-01T05:40:17;7.40;78.30
56538;DHT22;42435;53.292;6.000;2023-02-01T05:42:43;7.40;78.20
56538;DHT22;42435;53.292;6.000;2023-02-01T05:45:09;7.40;78.20
56538;DHT22;42435;53.292;6.000;2023-02-01T05:47:34;7.40;78.20
56538;DHT22;42435;53.292;6.000;2023-02-01T05:50:00;7.40;78.30
56538;DHT22;42435;53.292;6.000;2023-02-01T05:55:45;7.30;78.40
56538;DHT22;42435;53.292;6.000;2023-02-01T05:58:10;7.20;78.30
56538;DHT22;42435;53.292;6.000;2023-02-01T06:00:38;7.20;78.40
56538;DHT22;42435;53.292;6.000;2023-02-01T06:03:03;7.20;78.50
56538;DHT22;42435;53.292;6.000;2023-02-01T06:05:29;7.20;78.60
56538;DHT22;42435;53.292;6.000;2023-02-01T06:07:54;7.20;78.70
56538;DHT22;42435;53.292;6.000;2023-02-01T06:10:20;7.10;78.80
56538;DHT22;42435;53.292;6.000;2023-02-01T06:12:46;7.10;78.90
56538;DHT22;42435;53.292;6.000;2023-02-01T06:15:12;7.10;79.00
56538;DHT22;42435;53.292;6.000;2023-02-01T06:17:41;7.10;79.00
56538;DHT22;42435;53.292;6.000;2023-02-01T06:20:07;7.10;79.10
56538;DHT22;42435;53.292;6.000;2023-02-01T06:22:33;7.10;79.10
56538;DHT22;42435;53.292;6.000;2023-02-01T06:25:04;7.10;79.20
56538;DHT22;42435;53.292;6.000;2023-02-01T06:27:30;7.10;79.20
56538;DHT22;42435;53.292;6.000;2023-02-01T06:29:56;7.10;79.30
56538;DHT22;42435;53.292;6.000;2023-02-01T06:32:54;7.10;79.40
56538;DHT22;42435;53.292;6.000;2023-02-01T06:35:38;7.10;79.50
56538;DHT22;42435;53.292;6.000;2023-02-01T06:38:04;7.10;79.40
56538;DHT22;42435;53.292;6.000;2023-02-01T06:40:29;7.10;79.50
56538;DHT22;42435;53.292;6.000;2023-02-01T06:42:55;7.20;79.50
56538;DHT22;42435;53.292;6.000;2023-02-01T06:45:20;7.20;79.50
56538;DHT22;42435;53.292;6.000;2023-02-01T06:47:55;7.20;79.60
56538;DHT22;42435;53.292;6.000;2023-02-01T06:50:20;7.20;79.50
56538;DHT22;42435;53.292;6.000;2023-02-01T06:56:23;7.30;79.30
56538;DHT22;42435;53.292;6.000;2023-02-01T06:59:04;7.30;79.20
56538;DHT22;42435;53.292;6.000;2023-02-01T07:01:33;7.20;79.20
56538;DHT22;42435;53.292;6.000;2023-02-01T07:03:59;7.20;79.20
56538;DHT22;42435;53.292;6.000;2023-02-01T07:06:28;7.20;79.30
56538;DHT22;42435;53.292;6.000;2023-02-01T07:09:21;7.20;79.40
56538;DHT22;42435;53.292;6.000;2023-02-01T07:12:26;7.20;79.60
56538;DHT22;42435;53.292;6.000;2023-02-01T07:15:33;7.20;79.60
56538;DHT22;42435;53.292;6.000;2023-02-01T07:18:07;7.20;79.80
56538;DHT22;42435;53.292;6.000;2023-02-01T07:20:51;7.20;79.70
56538;DHT22;42435;53.292;6.000;2023-02-01T07:23:22;7.20;79.80
56538;DHT22;42435;53.292;6.000;2023-02-01T07:26:02;7.20;79.70
56538;DHT22;42435;53.292;6.000;2023-02-01T07:29:03;7.30;79.80
56538;DHT22;42435;53.292;6.000;2023-02-01T07:34:52;7.20;79.80
56538;DHT22;42435;53.292;6.000;2023-02-01T07:37:50;7.20;79.80
56538;DHT22;42435;53.292;6.000;2023-02-01T07:40:16;7.20;80.00
56538;DHT22;42435;53.292;6.000;2023-02-01T07:42:52;7.20;79.90
56538;DHT22;42435;53.292;6.000;2023-02-01T07:45:27;7.20;79.90
56538;DHT22;42435;53.292;6.000;2023-02-01T07:48:05;7.20;79.90
56538;DHT22;42435;53.292;6.000;2023-02-01T07:50:39;7.20;79.70
56538;DHT22;42435;53.292;6.000;2023-02-01T07:53:34;7.20;79.70
56538;DHT22;42435;53.292;6.000;2023-02-01T07:56:53;7.20;79.60
56538;DHT22;42435;53.292;6.000;2023-02-01T07:59:43;7.30;79.50
56538;DHT22;42435;53.292;6.000;2023-02-01T08:03:03;7.30;79.40
56538;DHT22;42435;53.292;6.000;2023-02-01T08:08:54;7.30;79.40
56538;DHT22;42435;53.292;6.000;2023-02-01T08:11:37;7.30;79.40
56538;DHT22;42435;53.292;6.000;2023-02-01T08:14:07;7.30;79.60
56538;DHT22;42435;53.292;6.000;2023-02-01T08:19:37;7.30;79.70
56538;DHT22;42435;53.292;6.000;2023-02-01T08:25:28;7.30;79.60
56538;DHT22;42435;53.292;6.000;2023-02-01T08:28:31;7.40;79.60
56538;DHT22;42435;53.292;6.000;2023-02-01T08:31:13;7.40;79.70
56538;DHT22;42435;53.292;6.000;2023-02-01T08:33:43;7.40;79.70
56538;DHT22;42435;53.292;6.000;2023-02-01T08:36:55;7.40;79.60
56538;DHT22;42435;53.292;6.000;2023-02-01T08:39:59;7.40;79.50
56538;DHT22;42435;53.292;6.000;2023-02-01T08:42:34;7.40;79.50
56538;DHT22;42435;53.292;6.000;2023-02-01T08:45:34;7.40;79.40
56538;DHT22;42435;53.292;6.000;2023-02-01T08:48:08;7.40;79.40
56538;DHT22;42435;53.292;6.000;2023-02-01T08:50:56;7.30;79.40
56538;DHT22;42435;53.292;6.000;2023-02-01T08:53:30;7.40;79.40
56538;DHT22;42435;53.292;6.000;2023-02-01T08:59:12;7.40;79.10
56538;DHT22;42435;53.292;6.000;2023-02-01T09:01:59;7.40;79.00
56538;DHT22;42435;53.292;6.000;2023-02-01T09:04:27;7.40;79.00
56538;DHT22;42435;53.292;6.000;2023-02-01T09:06:56;7.40;79.00
56538;DHT22;42435;53.292;6.000;2023-02-01T09:09:27;7.40;78.90
56538;DHT22;42435;53.292;6.000;2023-02-01T09:12:02;7.40;79.00
56538;DHT22;42435;53.292;6.000;2023-02-01T09:14:31;7.40;79.00
56538;DHT22;42435;53.292;6.000;2023-02-01T09:17:10;7.50;78.90
56538;DHT22;42435;53.292;6.000;2023-02-01T09:20:02;7.50;78.80
56538;DHT22;42435;53.292;6.000;2023-02-01T09:22:28;7.50;78.80
56538;DHT22;42435;53.292;6.000;2023-02-01T09:25:23;7.50;78.70
56538;DHT22;42435;53.292;6.000;2023-02-01T09:28:03;7.50;78.80
56538;DHT22;42435;53.292;6.000;2023-02-01T09:30:37;7.50;78.90
56538;DHT22;42435;53.292;6.000;2023-02-01T09:33:18;7.50;78.90
56538;DHT22;42435;53.292;6.000;2023-02-01T09:36:13;7.50;78.80
56538;DHT22;42435;53.292;6.000;2023-02-01T09:38:58;7.60;78.70
56538;DHT22;42435;53.292;6.000;2023-02-01T09:47:22;7.60;78.50
56538;DHT22;42435;53.292;6.000;2023-02-01T09:50:50;7.60;78.50
56538;DHT22;42435;53.292;6.000;2023-02-01T09:56:46;7.60;78.60
56538;DHT22;42435;53.292;6.000;2023-02-01T09:59:46;7.60;78.70
56538;DHT22;42435;53.292;6.000;2023-02-01T10:02:38;7.60;78.80
56538;DHT22;42435;53.292;6.000;2023-02-01T10:27:46;7.90;77.90
56538;DHT22;42435;53.292;6.000;2023-02-01T10:36:35;8.10;77.40
56538;DHT22;42435;53.292;6.000;2023-02-01T10:39:21;8.10;77.60
56538;DHT22;42435;53.292;6.000;2023-02-01T10:42:10;8.10;77.90
56538;DHT22;42435;53.292;6.000;2023-02-01T10:44:44;8.00;78.20
56538;DHT22;42435;53.292;6.000;2023-02-01T10:47:31;7.90;78.50
56538;DHT22;42435;53.292;6.000;2023-02-01T10:50:31;8.00;78.60
56538;DHT22;42435;53.292;6.000;2023-02-01T10:53:45;8.00;78.80
56538;DHT22;42435;53.292;6.000;2023-02-01T10:56:27;8.00;78.80
56538;DHT22;42435;53.292;6.000;2023-02-01T10:59:24;8.00;79.00
56538;DHT22;42435;53.292;6.000;2023-02-01T11:02:31;8.00;79.40
56538;DHT22;42435;53.292;6.000;2023-02-01T11:05:13;7.90;79.50
56538;DHT22;42435;53.292;6.000;2023-02-01T11:07:58;7.90;79.70
56538;DHT22;42435;53.292;6.000;2023-02-01T11:17:38;8.00;79.50
56538;DHT22;42435;53.292;6.000;2023-02-01T11:20:45;8.10;79.50
56538;DHT22;42435;53.292;6.000;2023-02-01T11:23:21;8.10;79.40
56538;DHT22;42435;53.292;6.000;2023-02-01T11:25:56;8.00;79.60
56538;DHT22;42435;53.292;6.000;2023-02-01T11:28:32;8.00;79.90
56538;DHT22;42435;53.292;6.000;2023-02-01T11:37:55;8.10;80.30
56538;DHT22;42435;53.292;6.000;2023-02-01T11:40:47;8.10;80.20
56538;DHT22;42435;53.292;6.000;2023-02-01T11:43:28;8.30;79.90
56538;DHT22;42435;53.292;6.000;2023-02-01T11:46:02;8.40;79.50
56538;DHT22;42435;53.292;6.000;2023-02-01T11:54:38;8.50;78.80
56538;DHT22;42435;53.292;6.000;2023-02-01T12:07:00;8.90;78.40
56538;DHT22;42435;53.292;6.000;2023-02-01T12:22:50;8.90;77.70
56538;DHT22;42435;53.292;6.000;2023-02-01T12:26:08;8.90;77.70
56538;DHT22;42435;53.292;6.000;2023-02-01T12:38:01;9.00;78.20
56538;DHT22;42435;53.292;6.000;2023-02-01T12:50:48;9.00;77.90
56538;DHT22;42435;53.292;6.000;2023-02-01T12:53:30;9.10;78.00
56538;DHT22;42435;53.292;6.000;2023-02-01T12:56:41;9.20;77.90
56538;DHT22;42435;53.292;6.000;2023-02-01T13:02:59;9.20;77.70
56538;DHT22;42435;53.292;6.000;2023-02-01T13:06:16;9.20;77.60
56538;DHT22;42435;53.292;6.000;2023-02-01T13:09:02;9.10;77.60
56538;DHT22;42435;53.292;6.000;2023-02-01T13:17:53;9.00;77.70
56538;DHT22;42435;53.292;6.000;2023-02-01T13:24:16;8.90;77.60
56538;DHT22;42435;53.292;6.000;2023-02-01T13:26:46;8.90;77.70
56538;DHT22;42435;53.292;6.000;2023-02-01T13:29:14;8.90;77.70
56538;DHT22;42435;53.292;6.000;2023-02-01T13:42:04;8.90;77.80
56538;DHT22;42435;53.292;6.000;2023-02-01T13:47:45;8.90;77.80
56538;DHT22;42435;53.292;6.000;2023-02-01T13:50:31;8.90;77.90
56538;DHT22;42435;53.292;6.000;2023-02-01T13:53:53;8.90;77.90
56538;DHT22;42435;53.292;6.000;2023-02-01T13:56:53;8.90;78.00
56538;DHT22;42435;53.292;6.000;2023-02-01T14:11:47;8.90;78.20
56538;DHT22;42435;53.292;6.000;2023-02-01T14:17:52;8.90;77.60
56538;DHT22;42435;53.292;6.000;2023-02-01T14:21:28;8.90;77.50
56538;DHT22;42435;53.292;6.000;2023-02-01T14:27:52;8.90;77.20
56538;DHT22;42435;53.292;6.000;2023-02-01T14:31:12;8.80;77.00
56538;DHT22;42435;53.292;6.000;2023-02-01T14:34:02;8.80;76.80
56538;DHT22;42435;53.292;6.000;2023-02-01T14:36:56;8.80;76.60
56538;DHT22;42435;53.292;6.000;2023-02-01T14:42:32;8.80;76.60
56538;DHT22;42435;53.292;6.000;2023-02-01T14:53:21;8.80;76.60
56538;DHT22;42435;53.292;6.000;2023-02-01T14:56:28;8.90;76.50
56538;DHT22;42435;53.292;6.000;2023-02-01T14:59:21;8.90;76.50
56538;DHT22;42435;53.292;6.000;2023-02-01T15:02:31;8.80;76.30
56538;DHT22;42435;53.292;6.000;2023-02-01T15:08:33;8.80;76.10
56538;DHT22;42435;53.292;6.000;2023-02-01T15:11:15;8.70;76.10
56538;DHT22;42435;53.292;6.000;2023-02-01T15:13:51;8.70;76.20
56538;DHT22;42435;53.292;6.000;2023-02-01T15:16:42;8.70;76.40
56538;DHT22;42435;53.292;6.000;2023-02-01T15:20:01;8.60;76.60
56538;DHT22;42435;53.292;6.000;2023-02-01T15:23:14;8.60;76.70
56538;DHT22;42435;53.292;6.000;2023-02-01T15:25:56;8.50;76.80
56538;DHT22;42435;53.292;6.000;2023-02-01T15:31:41;8.40;76.90
56538;DHT22;42435;53.292;6.000;2023-02-01T15:34:47;8.30;77.10
56538;DHT22;42435;53.292;6.000;2023-02-01T15:37:51;8.30;77.10
56538;DHT22;42435;53.292;6.000;2023-02-01T15:44:55;8.20;77.10
56538;DHT22;42435;53.292;6.000;2023-02-01T15:47:55;8.10;77.10
56538;DHT22;42435;53.292;6.000;2023-02-01T15:50:39;8.10;77.20
56538;DHT22;42435;53.292;6.000;2023-02-01T15:53:33;8.10;77.10
56538;DHT22;42435;53.292;6.000;2023-02-01T15:56:36;8.00;77.10
56538;DHT22;42435;53.292;6.000;2023-02-01T15:59:58;8.00;77.10
56538;DHT22;42435;53.292;6.000;2023-02-01T16:03:00;7.90;77.30
56538;DHT22;42435;53.292;6.000;2023-02-01T16:05:55;7.90;77.40
56538;DHT22;42435;53.292;6.000;2023-02-01T16:08:31;7.90;77.40
56538;DHT22;42435;53.292;6.000;2023-02-01T16:11:41;7.90;77.50
56538;DHT22;42435;53.292;6.000;2023-02-01T16:15:00;7.80;77.50
56538;DHT22;42435;53.292;6.000;2023-02-01T16:17:56;7.80;77.40
56538;DHT22;42435;53.292;6.000;2023-02-01T16:20:30;7.70;77.30
56538;DHT22;42435;53.292;6.000;2023-02-01T16:22:59;7.70;77.30
56538;DHT22;42435;53.292;6.000;2023-02-01T16:25:34;7.70;77.30
56538;DHT22;42435;53.292;6.000;2023-02-01T16:28:35;7.60;77.20
56538;DHT22;42435;53.292;6.000;2023-02-01T16:31:27;7.70;77.30
56538;DHT22;42435;53.292;6.000;2023-02-01T16:33:53;7.60;77.20
56538;DHT22;42435;53.292;6.000;2023-02-01T16:36:19;7.60;77.10
56538;DHT22;42435;53.292;6.000;2023-02-01T16:38:46;7.60;77.10
56538;DHT22;42435;53.292;6.000;2023-02-01T16:41:37;7.60;77.20
56538;DHT22;42435;53.292;6.000;2023-02-01T16:44:04;7.50;77.30
56538;DHT22;42435;53.292;6.000;2023-02-01T16:46:35;7.50;77.40
56538;DHT22;42435;53.292;6.000;2023-02-01T16:49:05;7.50;77.60
56538;DHT22;42435;53.292;6.000;2023-02-01T16:51:32;7.50;77.90
56538;DHT22;42435;53.292;6.000;2023-02-01T16:53:59;7.50;78.10
56538;DHT22;42435;53.292;6.000;2023-02-01T16:56:29;7.50;78.30
56538;DHT22;42435;53.292;6.000;2023-02-01T16:58:59;7.60;78.40
56538;DHT22;42435;53.292;6.000;2023-02-01T17:01:25;7.50;78.30
56538;DHT22;42435;53.292;6.000;2023-02-01T17:03:50;7.50;78.30
56538;DHT22;42435;53.292;6.000;2023-02-01T17:06:24;7.50;78.20
56538;DHT22;42435;53.292;6.000;2023-02-01T17:08:55;7.50;78.10
56538;DHT22;42435;53.292;6.000;2023-02-01T17:11:23;7.50;77.80
56538;DHT22;42435;53.292;6.000;2023-02-01T17:13:49;7.50;77.30
56538;DHT22;42435;53.292;6.000;2023-02-01T17:18:46;7.50;76.60
56538;DHT22;42435;53.292;6.000;2023-02-01T17:21:12;7.50;76.30
56538;DHT22;42435;53.292;6.000;2023-02-01T17:23:58;7.50;76.10
56538;DHT22;42435;53.292;6.000;2023-02-01T17:26:25;7.40;75.70
56538;DHT22;42435;53.292;6.000;2023-02-01T17:28:54;7.40;75.40
56538;DHT22;42435;53.292;6.000;2023-02-01T17:31:23;7.40;75.20
56538;DHT22;42435;53.292;6.000;2023-02-01T17:33:53;7.40;75.10
56538;DHT22;42435;53.292;6.000;2023-02-01T17:36:22;7.40;74.90
56538;DHT22;42435;53.292;6.000;2023-02-01T17:38:50;7.40;74.80
56538;DHT22;42435;53.292;6.000;2023-02-01T17:41:21;7.40;74.80
56538;DHT22;42435;53.292;6.000;2023-02-01T17:43:58;7.30;74.80
56538;DHT22;42435;53.292;6.000;2023-02-01T17:46:26;7.30;74.80
56538;DHT22;42435;53.292;6.000;2023-02-01T17:48:55;7.30;74.80
56538;DHT22;42435;53.292;6.000;2023-02-01T17:51:26;7.40;74.90
56538;DHT22;42435;53.292;6.000;2023-02-01T17:54:01;7.40;75.00
56538;DHT22;42435;53.292;6.000;2023-02-01T17:56:31;7.40;75.20
56538;DHT22;42435;53.292;6.000;2023-02-01T17:59:05;7.40;75.40
56538;DHT22;42435;53.292;6.000;2023-02-01T18:01:42;7.50;75.70
56538;DHT22;42435;53.292;6.000;2023-02-01T18:04:22;7.50;75.90
56538;DHT22;42435;53.292;6.000;2023-02-01T18:06:50;7.50;76.20
56538;DHT22;42435;53.292;6.000;2023-02-01T18:09:48;7.50;76.20
56538;DHT22;42435;53.292;6.000;2023-02-01T18:15:23;7.60;76.40
56538;DHT22;42435;53.292;6.000;2023-02-01T18:21:37;7.60;76.30
56538;DHT22;42435;53.292;6.000;2023-02-01T18:24:28;7.60;76.20
56538;DHT22;42435;53.292;6.000;2023-02-01T18:27:02;7.70;76.10
56538;DHT22;42435;53.292;6.000;2023-02-01T18:29:37;7.70;76.00
56538;DHT22;42435;53.292;6.000;2023-02-01T18:32:12;7.70;76.00
56538;DHT22;42435;53.292;6.000;2023-02-01T18:34:58;7.70;75.90
56538;DHT22;42435;53.292;6.000;2023-02-01T18:37:49;7.60;75.90
56538;DHT22;42435;53.292;6.000;2023-02-01T18:47:08;7.40;75.80
56538;DHT22;42435;53.292;6.000;2023-02-01T18:49:57;7.40;75.80
56538;DHT22;42435;53.292;6.000;2023-02-01T18:52:45;7.30;75.80
56538;DHT22;42435;53.292;6.000;2023-02-01T18:55:28;7.30;75.90
56538;DHT22;42435;53.292;6.000;2023-02-01T18:58:24;7.30;75.90
56538;DHT22;42435;53.292;6.000;2023-02-01T19:01:04;7.30;75.90
56538;DHT22;42435;53.292;6.000;2023-02-01T19:03:56;7.20;75.90
56538;DHT22;42435;53.292;6.000;2023-02-01T19:06:24;7.20;75.90
56538;DHT22;42435;53.292;6.000;2023-02-01T19:08:53;7.20;76.00
56538;DHT22;42435;53.292;6.000;2023-02-01T19:11:20;7.20;76.00
56538;DHT22;42435;53.292;6.000;2023-02-01T19:13:49;7.20;75.80
56538;DHT22;42435;53.292;6.000;2023-02-01T19:16:14;7.20;75.70
56538;DHT22;42435;53.292;6.000;2023-02-01T19:18:43;7.20;75.60
56538;DHT22;42435;53.292;6.000;2023-02-01T19:21:12;7.20;75.40
56538;DHT22;42435;53.292;6.000;2023-02-01T19:23:41;7.30;75.20
56538;DHT22;42435;53.292;6.000;2023-02-01T19:26:14;7.30;75.10
56538;DHT22;42435;53.292;6.000;2023-02-01T19:28:43;7.30;75.00
56538;DHT22;42435;53.292;6.000;2023-02-01T19:31:18;7.40;75.10
56538;DHT22;42435;53.292;6.000;2023-02-01T19:36:54;7.30;75.10
56538;DHT22;42435;53.292;6.000;2023-02-01T19:39:20;7.20;75.20
56538;DHT22;42435;53.292;6.000;2023-02-01T19:41:47;7.20;75.30
56538;DHT22;42435;53.292;6.000;2023-02-01T19:44:12;7.20;75.40
56538;DHT22;42435;53.292;6.000;2023-02-01T19:50:19;7.20;75.60
56538;DHT22;42435;53.292;6.000;2023-02-01T19:52:57;7.20;75.70
56538;DHT22;42435;53.292;6.000;2023-02-01T19:56:01;7.10;75.60
56538;DHT22;42435;53.292;6.000;2023-02-01T19:58:30;7.10;75.60
56538;DHT22;42435;53.292;6.000;2023-02-01T20:01:06;7.10;75.60
56538;DHT22;42435;53.292;6.000;2023-02-01T20:03:49;7.10;75.60
56538;DHT22;42435;53.292;6.000;2023-02-01T20:06:50;7.10;75.70
56538;DHT22;42435;53.292;6.000;2023-02-01T20:09:31;7.10;75.60
56538;DHT22;42435;53.292;6.000;2023-02-01T20:12:21;7.10;75.60
56538;DHT22;42435;53.292;6.000;2023-02-01T20:14:53;7.00;75.60
56538;DHT22;42435;53.292;6.000;2023-02-01T20:17:47;7.00;75.70
56538;DHT22;42435;53.292;6.000;2023-02-01T20:20:31;7.00;75.70
56538;DHT22;42435;53.292;6.000;2023-02-01T20:23:22;7.00;75.60
56538;DHT22;42435;53.292;6.000;2023-02-01T20:26:17;7.00;75.60
56538;DHT22;42435;53.292;6.000;2023-02-01T20:29:10;7.00;75.50
56538;DHT22;42435;53.292;6.000;2023-02-01T20:32:01;7.00;75.40
56538;DHT22;42435;53.292;6.000;2023-02-01T20:38:00;7.00;75.20
56538;DHT22;42435;53.292;6.000;2023-02-01T20:40:47;7.00;75.10
56538;DHT22;42435;53.292;6.000;2023-02-01T20:43:56;7.00;75.00
56538;DHT22;42435;53.292;6.000;2023-02-01T20:46:42;7.00;74.70
56538;DHT22;42435;53.292;6.000;2023-02-01T20:49:31;7.00;74.60
56538;DHT22;42435;53.292;6.000;2023-02-01T20:52:17;6.90;74.50
56538;DHT22;42435;53.292;6.000;2023-02-01T20:54:53;6.90;74.50
56538;DHT22;42435;53.292;6.000;2023-02-01T20:58:00;6.90;74.50
56538;DHT22;42435;53.292;6.000;2023-02-01T21:01:00;6.90;74.40
56538;DHT22;42435;53.292;6.000;2023-02-01T21:06:19;6.90;74.40
56538;DHT22;42435;53.292;6.000;2023-02-01T21:08:45;6.80;74.50
56538;DHT22;42435;53.292;6.000;2023-02-01T21:11:16;6.80;74.50
56538;DHT22;42435;53.292;6.000;2023-02-01T21:14:27;6.80;74.50
56538;DHT22;42435;53.292;6.000;2023-02-01T21:17:34;6.80;74.70
56538;DHT22;42435;53.292;6.000;2023-02-01T21:20:24;6.70;74.80